Time;durP1;ratioP1;P1;durP2;ratioP2;P2;SDS_P1;SDS_P2;PMS_P1;PMS_P2;Temp;Humidity;BMP_temperature;BMP_pressure;BME280_temperature;BME280_humidity;BME280_pressure;Samples;Min_cycle;Max_cycle;Signal;HPM_P1;HPM_P2
2023/10/24 00:00:47;;;;;;;;;25.00;24.00;;;;;13.05;100.00;98521.78;6152455;28;96536;-60
2023/10/24 00:03:50;;;;;;;;;27.50;25.50;;;;;13.02;100.00;98523.13;6162384;28;96253;-60
2023/10/24 00:06:53;;;;;;;;;28.00;25.00;;;;;12.98;100.00;98515.75;6163317;28;97104;-60
2023/10/24 00:09:57;;;;;;;;;27.60;26.40;;;;;12.99;100.00;98515.50;6164967;28;96407;-60
2023/10/24 00:13:00;;;;;;;;;29.00;25.75;;;;;13.00;100.00;98510.88;6163589;28;96457;-60
2023/10/24 00:16:06;;;;;;;;;26.40;23.80;;;;;13.04;100.00;98514.75;6162168;28;96504;-60
2023/10/24 00:19:09;;;;;;;;;27.00;25.40;;;;;13.05;100.00;98510.97;6163907;28;96292;-60
2023/10/24 00:22:12;;;;;;;;;26.20;22.60;;;;;13.03;100.00;98508.53;6171462;28;96853;-60
2023/10/24 00:25:15;;;;;;;;;24.40;24.00;;;;;13.05;100.00;98499.34;6164311;28;96357;-60
2023/10/24 00:28:18;;;;;;;;;22.75;21.75;;;;;13.02;100.00;98506.06;6168309;28;96306;-60
2023/10/24 00:31:23;;;;;;;;;23.00;22.00;;;;;13.02;100.00;98500.66;6184895;28;96397;-60
2023/10/24 00:34:26;;;;;;;;;22.00;21.60;;;;;13.00;100.00;98503.59;6151086;28;96795;-59
2023/10/24 00:37:30;;;;;;;;;23.00;21.25;;;;;12.95;100.00;98498.09;6170260;28;97094;-60
2023/10/24 00:40:33;;;;;;;;;24.80;23.20;;;;;12.93;100.00;98488.59;6169195;28;96572;-60
2023/10/24 00:43:37;;;;;;;;;21.00;20.25;;;;;12.91;100.00;98485.31;6168373;28;96960;-60
2023/10/24 00:46:42;;;;;;;;;24.80;22.80;;;;;12.85;100.00;98491.72;6169330;28;96409;-59
2023/10/24 00:49:46;;;;;;;;;21.00;18.00;;;;;12.79;100.00;98487.28;6168490;28;96567;-59
2023/10/24 00:52:49;;;;;;;;;24.75;24.00;;;;;12.68;100.00;98470.06;6168519;28;96633;-60
2023/10/24 00:55:53;;;;;;;;;22.60;21.40;;;;;12.72;100.00;98479.31;6169572;28;96648;-60
2023/10/24 00:58:58;;;;;;;;;22.40;21.40;;;;;12.68;100.00;98478.19;6171985;28;96910;-60
2023/10/24 01:02:02;;;;;;;;;24.40;22.40;;;;;12.47;100.00;98460.78;6220592;22;96958;-60
2023/10/24 01:05:06;;;;;;;;;21.80;21.00;;;;;12.50;100.00;98479.25;6240507;27;96682;-60
2023/10/24 01:08:09;;;;;;;;;23.25;21.25;;;;;12.46;100.00;98482.69;6230106;28;96373;-59
2023/10/24 01:11:12;;;;;;;;;23.25;21.00;;;;;12.42;100.00;98473.38;6244672;28;97434;-59
2023/10/24 01:14:16;;;;;;;;;24.60;22.60;;;;;12.41;100.00;98467.16;6247193;27;96838;-60
2023/10/24 01:17:20;;;;;;;;;29.00;26.00;;;;;12.36;100.00;98461.69;6231430;28;97138;-60
2023/10/24 01:20:23;;;;;;;;;25.00;24.00;;;;;12.29;100.00;98463.72;6230151;28;96463;-60
2023/10/24 01:23:31;;;;;;;;;26.00;24.75;;;;;12.30;100.00;98468.06;6225314;27;96992;-60
2023/10/24 01:26:35;;;;;;;;;25.60;24.60;;;;;12.20;100.00;98472.47;6243912;28;96480;-60
2023/10/24 01:29:38;;;;;;;;;22.50;21.50;;;;;12.17;100.00;98462.16;6238409;27;98393;-59
2023/10/24 01:32:41;;;;;;;;;24.00;23.40;;;;;12.06;100.00;98439.50;6232407;27;96355;-60
2023/10/24 01:35:44;;;;;;;;;32.40;29.80;;;;;12.14;100.00;98460.72;6230708;28;96468;-61
2023/10/24 01:38:49;;;;;;;;;25.00;24.25;;;;;12.16;100.00;98466.72;6239729;27;96500;-60
2023/10/24 01:41:52;;;;;;;;;22.60;22.00;;;;;12.20;100.00;98472.47;6223350;27;98144;-61
2023/10/24 01:44:55;;;;;;;;;22.75;21.00;;;;;12.23;100.00;98477.38;6238654;28;96719;-61
2023/10/24 01:48:00;;;;;;;;;24.00;22.40;;;;;12.23;100.00;98483.59;6222744;28;96572;-60
2023/10/24 01:51:03;;;;;;;;;23.60;21.60;;;;;12.21;100.00;98476.81;6211597;28;98279;-61
2023/10/24 01:54:08;;;;;;;;;25.00;23.00;;;;;12.20;100.00;98475.16;6234902;28;96531;-60
2023/10/24 01:57:11;;;;;;;;;24.40;23.00;;;;;12.08;100.00;98457.09;6238920;28;96378;-60
2023/10/24 02:00:15;;;;;;;;;24.00;23.00;;;;;12.19;100.00;98465.41;6238601;28;96538;-60
2023/10/24 02:03:18;;;;;;;;;25.50;24.00;;;;;12.19;100.00;98460.81;6239589;28;96346;-60
2023/10/24 02:06:21;;;;;;;;;19.00;18.00;;;;;12.21;100.00;98461.41;6232956;28;96706;-60
2023/10/24 02:09:27;;;;;;;;;24.00;24.00;;;;;12.21;100.00;98452.47;6232694;28;98460;-60
2023/10/24 02:12:30;;;;;;;;;24.00;24.00;;;;;12.26;100.00;98449.88;6223486;27;97087;-60
2023/10/24 02:15:33;;;;;;;;;27.00;26.00;;;;;12.30;100.00;98451.84;6232067;27;96481;-60
2023/10/24 02:18:36;;;;;;;;;31.00;28.00;;;;;12.36;100.00;98452.75;6232569;28;96537;-61
2023/10/24 02:21:40;;;;;;;;;25.00;23.00;;;;;12.40;100.00;98454.72;6238504;28;96701;-60
2023/10/24 02:24:44;;;;;;;;;26.00;25.00;;;;;12.44;100.00;98453.19;6221691;28;96495;-60
2023/10/24 02:27:47;;;;;;;;;23.40;21.40;;;;;12.48;100.00;98454.31;6238188;28;99172;-61
2023/10/24 02:30:51;;;;;;;;;28.33;27.33;;;;;12.38;100.00;98427.09;6234737;27;96308;-60
2023/10/24 02:33:55;;;;;;;;;28.00;25.80;;;;;12.47;100.00;98444.56;6235244;27;96305;-60
2023/10/24 02:36:58;;;;;;;;;25.20;24.60;;;;;12.42;100.00;98436.38;6228432;28;96373;-60
2023/10/24 02:40:03;;;;;;;;;25.80;25.80;;;;;12.43;100.00;98427.19;6232729;28;96356;-60
2023/10/24 02:43:06;;;;;;;;;27.00;26.00;;;;;12.45;100.00;98429.66;6226910;27;97252;-61
2023/10/24 02:46:09;;;;;;;;;28.00;27.00;;;;;12.49;100.00;98428.94;6233807;28;96488;-62
2023/10/24 02:49:12;;;;;;;;;29.40;28.00;;;;;12.53;100.00;98421.13;6231573;28;97672;-62
2023/10/24 02:52:15;;;;;;;;;25.40;23.00;;;;;12.51;100.00;98418.66;6237498;28;96646;-63
2023/10/24 02:55:20;;;;;;;;;29.00;27.60;;;;;12.55;100.00;98422.53;6230546;28;96497;-62
2023/10/24 02:58:23;;;;;;;;;32.50;30.75;;;;;12.55;100.00;98432.53;6230341;28;96449;-62
2023/10/24 03:01:26;;;;;;;;;29.00;28.00;;;;;12.55;100.00;98424.44;6232327;28;97326;-62
2023/10/24 03:04:30;;;;;;;;;26.60;24.60;;;;;12.54;100.00;98422.78;6233359;27;96672;-62
2023/10/24 03:07:33;;;;;;;;;30.40;28.00;;;;;12.58;100.00;98422.03;6228621;28;96533;-62
2023/10/24 03:10:41;;;;;;;;;32.00;30.00;;;;;12.56;100.00;98420.63;6230506;28;96656;-62
2023/10/24 03:13:44;;;;;;;;;26.60;26.60;;;;;12.56;100.00;98423.34;6220666;28;96323;-62
2023/10/24 03:16:48;;;;;;;;;26.40;24.00;;;;;12.59;100.00;98414.75;6228653;28;98273;-62
2023/10/24 03:19:52;;;;;;;;;29.00;28.00;;;;;12.57;100.00;98397.94;6230606;28;96586;-62
2023/10/24 03:22:55;;;;;;;;;27.40;24.00;;;;;12.53;100.00;98402.22;6225598;28;97304;-62
2023/10/24 03:26:00;;;;;;;;;28.00;24.50;;;;;12.49;100.00;98393.78;6225081;28;97293;-62
2023/10/24 03:29:03;;;;;;;;;27.00;26.75;;;;;12.52;100.00;98395.16;6213778;28;96369;-62
2023/10/24 03:32:07;;;;;;;;;26.40;25.40;;;;;12.56;100.00;98396.28;6208781;28;96611;-62
2023/10/24 03:35:11;;;;;;;;;29.20;27.00;;;;;12.56;100.00;98390.88;6205661;28;97700;-62
2023/10/24 03:38:14;;;;;;;;;26.00;25.60;;;;;12.58;100.00;98397.72;6230797;28;96941;-63
2023/10/24 03:41:18;;;;;;;;;23.00;22.40;;;;;12.53;100.00;98389.50;6229377;28;96713;-62
2023/10/24 03:44:22;;;;;;;;;27.40;25.40;;;;;12.51;100.00;98390.84;6229437;28;97714;-62
2023/10/24 03:47:25;;;;;;;;;26.00;25.00;;;;;12.50;100.00;98394.59;6230931;28;96657;-62
2023/10/24 03:50:28;;;;;;;;;26.50;25.50;;;;;12.48;100.00;98388.59;6231932;28;96961;-62
2023/10/24 03:53:31;;;;;;;;;29.40;26.20;;;;;12.50;100.00;98400.00;6234777;28;96952;-62
2023/10/24 03:56:36;;;;;;;;;24.40;23.40;;;;;12.51;100.00;98401.66;6229131;28;96939;-60
2023/10/24 03:59:39;;;;;;;;;30.20;29.00;;;;;12.55;100.00;98391.97;6226652;27;97414;-61
2023/10/24 04:02:42;;;;;;;;;30.33;29.00;;;;;12.52;100.00;98387.03;6232969;28;96893;-61
2023/10/24 04:05:45;;;;;;;;;26.60;24.80;;;;;12.51;100.00;98380.03;6232392;28;97899;-61
2023/10/24 04:08:48;;;;;;;;;25.00;23.40;;;;;12.45;100.00;98375.59;6220012;27;96975;-60
2023/10/24 04:11:53;;;;;;;;;30.00;28.00;;;;;12.40;100.00;98368.22;6235744;28;96585;-60
2023/10/24 04:14:56;;;;;;;;;24.80;23.00;;;;;12.39;100.00;98354.94;6232779;27;97532;-60
2023/10/24 04:17:59;;;;;;;;;24.00;22.80;;;;;12.36;100.00;98366.25;6234804;27;97251;-61
2023/10/24 04:21:02;;;;;;;;;25.00;21.75;;;;;12.37;100.00;98370.56;6232774;28;97544;-60
2023/10/24 04:24:21;;;;;;;;;26.00;25.00;;;;;12.38;100.00;98388.44;6192108;28;96825;-60
2023/10/24 04:27:25;;;;;;;;;26.40;23.40;;;;;12.26;100.00;98380.44;6231716;27;96664;-60
2023/10/24 04:30:28;;;;;;;;;23.20;22.20;;;;;12.25;100.00;98381.50;6230225;28;96378;-60
2023/10/24 04:33:31;;;;;;;;;26.00;23.80;;;;;12.25;100.00;98386.06;6225756;28;96526;-60
2023/10/24 04:36:34;;;;;;;;;30.00;27.75;;;;;12.24;100.00;98382.53;6234566;28;99120;-61
2023/10/24 04:39:38;;;;;;;;;33.00;29.00;;;;;12.17;100.00;98373.75;6234474;28;96497;-62
2023/10/24 04:42:43;;;;;;;;;26.00;25.60;;;;;12.12;100.00;98370.97;6216815;28;96758;-60
2023/10/24 04:45:47;;;;;;;;;27.00;26.00;;;;;12.10;100.00;98373.94;6230705;28;97003;-60
2023/10/24 04:48:50;;;;;;;;;29.40;26.00;;;;;12.06;100.00;98367.38;6230377;28;99098;-60
2023/10/24 04:51:53;;;;;;;;;29.00;28.00;;;;;12.07;100.00;98382.50;6232644;28;98550;-61
2023/10/24 04:54:56;;;;;;;;;26.40;26.00;;;;;12.05;100.00;98381.13;6230617;28;96607;-60
2023/10/24 04:58:02;;;;;;;;;28.00;26.00;;;;;12.05;100.00;98381.94;6227236;28;96486;-61
2023/10/24 05:01:05;;;;;;;;;22.60;20.00;;;;;12.00;100.00;98367.53;6220436;28;97239;-60
2023/10/24 05:04:08;;;;;;;;;25.60;23.40;;;;;11.97;100.00;98355.31;6234416;28;96931;-60
2023/10/24 05:07:11;;;;;;;;;18.50;18.00;;;;;11.94;100.00;98360.38;6235268;27;97202;-60
2023/10/24 05:10:14;;;;;;;;;29.25;25.25;;;;;11.91;100.00;98367.13;6237854;28;96524;-61
2023/10/24 05:13:19;;;;;;;;;24.60;22.00;;;;;11.89;100.00;98344.09;6222910;28;96874;-59
2023/10/24 05:16:22;;;;;;;;;25.00;25.00;;;;;11.91;100.00;98353.59;6239889;28;96886;-60
2023/10/24 05:19:25;;;;;;;;;29.00;26.00;;;;;11.84;100.00;98352.94;6235262;27;97604;-60
2023/10/24 05:22:29;;;;;;;;;23.40;22.40;;;;;11.85;100.00;98367.25;6241420;28;98527;-60
2023/10/24 05:25:32;;;;;;;;;26.00;24.00;;;;;11.83;100.00;98348.59;6241557;28;96599;-60
2023/10/24 05:28:36;;;;;;;;;24.20;22.20;;;;;11.94;100.00;98346.88;6241225;27;96322;-60
2023/10/24 05:31:40;;;;;;;;;25.40;23.60;;;;;11.99;100.00;98352.38;6239709;27;96326;-60
2023/10/24 05:34:43;;;;;;;;;23.60;21.60;;;;;12.01;100.00;98348.38;6239518;28;96652;-60
2023/10/24 05:37:46;;;;;;;;;26.40;25.00;;;;;12.08;100.00;98359.84;6239200;28;96557;-60
2023/10/24 05:40:49;;;;;;;;;24.20;23.00;;;;;12.06;100.00;98374.66;6240500;27;96559;-60
2023/10/24 05:43:55;;;;;;;;;25.00;22.00;;;;;12.07;100.00;98379.03;6239659;27;97044;-61
2023/10/24 05:46:58;;;;;;;;;23.00;21.00;;;;;12.06;100.00;98380.91;6209656;28;97244;-59
2023/10/24 05:50:01;;;;;;;;;26.20;24.80;;;;;12.13;100.00;98375.31;6240346;27;96703;-60
2023/10/24 05:53:04;;;;;;;;;25.00;24.00;;;;;12.21;100.00;98374.13;6229995;27;96547;-60
2023/10/24 05:56:08;;;;;;;;;24.25;21.25;;;;;12.36;100.00;98388.72;6229907;27;98444;-59
2023/10/24 05:59:12;;;;;;;;;24.60;23.60;;;;;12.51;100.00;98393.53;6235684;28;96891;-60
2023/10/24 06:02:19;;;;;;;;;25.60;24.40;;;;;12.63;100.00;98391.56;6239775;28;96585;-59
2023/10/24 06:05:22;;;;;;;;;28.20;23.00;;;;;12.69;100.00;98378.94;6237975;28;96625;-60
2023/10/24 06:08:25;;;;;;;;;26.00;25.00;;;;;12.76;100.00;98371.47;6238669;27;97990;-60
2023/10/24 06:11:28;;;;;;;;;25.25;24.25;;;;;12.85;100.00;98372.69;6237575;28;97541;-60
2023/10/24 06:14:34;;;;;;;;;29.60;27.40;;;;;12.93;100.00;98364.97;6230896;28;96349;-60
2023/10/24 06:17:38;;;;;;;;;31.00;26.00;;;;;12.98;100.00;98359.63;6234717;27;96751;-60
2023/10/24 06:20:41;;;;;;;;;24.00;22.80;;;;;12.88;100.00;98362.19;6223232;28;96485;-60
2023/10/24 06:23:45;;;;;;;;;22.40;22.40;;;;;12.77;100.00;98357.69;6238252;28;96433;-61
2023/10/24 06:26:48;;;;;;;;;23.00;22.00;;;;;12.70;100.00;98348.94;6222245;28;96505;-60
2023/10/24 06:29:52;;;;;;;;;21.50;21.00;;;;;12.77;100.00;98362.28;6221157;28;96492;-60
2023/10/24 06:32:55;;;;;;;;;19.00;18.00;;;;;12.81;100.00;98366.94;6229255;27;96563;-61
2023/10/24 06:35:59;;;;;;;;;21.00;19.00;;;;;12.93;100.00;98369.56;6233525;28;96462;-60
2023/10/24 06:39:04;;;;;;;;;19.40;17.40;;;;;13.00;100.00;98373.72;6225284;28;97503;-60
2023/10/24 06:42:07;;;;;;;;;22.00;19.00;;;;;13.11;100.00;98377.41;6222860;27;96228;-60
2023/10/24 06:45:13;;;;;;;;;23.00;22.00;;;;;13.12;100.00;98368.22;6225464;28;96364;-60
2023/10/24 06:48:16;;;;;;;;;22.00;20.60;;;;;13.17;100.00;98362.06;6231200;28;96668;-60
2023/10/24 06:51:19;;;;;;;;;19.00;19.00;;;;;13.15;100.00;98367.72;6218896;28;98476;-60
2023/10/24 06:54:22;;;;;;;;;20.60;19.00;;;;;13.24;100.00;98362.69;6230677;28;96419;-60
2023/10/24 06:57:25;;;;;;;;;19.40;19.00;;;;;13.30;100.00;98358.97;6227194;28;96581;-61
2023/10/24 07:00:30;;;;;;;;;19.00;18.00;;;;;13.47;100.00;98354.31;6205242;28;96683;-61
2023/10/24 07:03:33;;;;;;;;;20.40;19.60;;;;;13.62;100.00;98340.94;6174681;28;96506;-61
2023/10/24 07:06:36;;;;;;;;;19.67;19.00;;;;;13.74;100.00;98330.78;6170967;28;96415;-61
2023/10/24 07:09:39;;;;;;;;;22.00;20.50;;;;;13.85;100.00;98332.50;6189501;28;96267;-61
2023/10/24 07:12:42;;;;;;;;;23.60;22.60;;;;;14.01;100.00;98332.66;6173003;28;96498;-61
2023/10/24 07:15:47;;;;;;;;;22.00;22.00;;;;;14.21;100.00;98338.28;6169463;28;98578;-61
2023/10/24 07:18:51;;;;;;;;;22.80;20.80;;;;;14.42;100.00;98318.38;6174524;28;96378;-61
2023/10/24 07:21:54;;;;;;;;;19.40;19.00;;;;;14.72;100.00;98315.88;6170878;28;96673;-62
2023/10/24 07:24:57;;;;;;;;;20.80;19.80;;;;;14.94;100.00;98312.22;6169392;28;98469;-61
2023/10/24 07:28:00;;;;;;;;;18.40;16.80;;;;;15.01;100.00;98315.50;6182932;28;97828;-63
2023/10/24 07:31:05;;;;;;;;;18.25;17.25;;;;;15.09;100.00;98318.53;6173278;28;97132;-63
2023/10/24 07:34:08;;;;;;;;;20.60;20.60;;;;;15.14;100.00;98315.84;6169235;28;98661;-63
2023/10/24 07:37:11;;;;;;;;;19.00;18.00;;;;;15.27;100.00;98322.69;6174263;28;96960;-64
2023/10/24 07:40:14;;;;;;;;;21.20;20.00;;;;;15.36;100.00;98321.06;6176257;28;96686;-63
2023/10/24 07:43:17;;;;;;;;;19.20;17.60;;;;;15.48;100.00;98316.25;6172967;28;96674;-63
2023/10/24 07:46:22;;;;;;;;;21.80;19.80;;;;;15.62;100.00;98318.47;6185453;28;96499;-63
2023/10/24 07:49:25;;;;;;;;;24.75;21.25;;;;;15.75;100.00;98334.25;6173473;28;96704;-63
2023/10/24 07:52:29;;;;;;;;;19.00;17.00;;;;;15.85;100.00;98334.28;6180152;28;96464;-63
2023/10/24 07:55:33;;;;;;;;;20.00;18.50;;;;;15.79;100.00;98327.19;6179029;28;96339;-64
2023/10/24 07:58:36;;;;;;;;;24.40;21.40;;;;;15.77;100.00;98329.38;6170543;28;96559;-63
2023/10/24 08:01:41;;;;;;;;;22.00;21.00;;;;;15.83;100.00;98331.81;6206750;28;96541;-63
2023/10/24 08:04:44;;;;;;;;;18.40;18.40;;;;;15.92;100.00;98315.81;6212617;28;96717;-63
2023/10/24 08:07:47;;;;;;;;;19.60;18.60;;;;;15.91;100.00;98298.69;6229042;28;96739;-64
2023/10/24 08:10:50;;;;;;;;;19.00;17.00;;;;;15.99;100.00;98286.47;6221941;28;97995;-63
2023/10/24 08:13:54;;;;;;;;;22.00;20.80;;;;;16.18;100.00;98265.78;6219078;28;96443;-63
2023/10/24 08:16:58;;;;;;;;;20.80;20.20;;;;;16.19;100.00;98258.44;6226333;27;96867;-65
2023/10/24 08:20:02;;;;;;;;;24.00;21.00;;;;;16.09;100.00;98242.13;6227801;28;96424;-64
2023/10/24 08:23:06;;;;;;;;;20.00;20.00;;;;;15.93;100.00;98233.97;6223531;28;96413;-63
2023/10/24 08:26:09;;;;;;;;;22.00;20.00;;;;;16.03;100.00;98230.44;6236362;27;96979;-63
2023/10/24 08:29:12;;;;;;;;;20.40;19.00;;;;;16.07;100.00;98226.13;6224590;27;96486;-64
2023/10/24 08:32:16;;;;;;;;;23.00;21.00;;;;;15.97;100.00;98228.84;6228628;28;96532;-64
2023/10/24 08:35:20;;;;;;;;;22.00;20.50;;;;;15.98;100.00;98244.03;6223844;28;98360;-63
2023/10/24 08:38:23;;;;;;;;;23.40;21.00;;;;;15.96;100.00;98251.66;6231630;28;96663;-61
2023/10/24 08:41:26;;;;;;;;;24.50;21.50;;;;;16.01;100.00;98255.22;6226534;28;96375;-61
2023/10/24 08:44:31;;;;;;;;;21.40;21.00;;;;;16.14;100.00;98266.59;6220032;27;96543;-61
2023/10/24 08:47:36;;;;;;;;;23.00;21.60;;;;;16.19;100.00;98253.00;6237045;28;96609;-61
2023/10/24 08:50:43;;;;;;;;;25.40;22.00;;;;;16.35;100.00;98255.44;6212878;27;96800;-61
2023/10/24 08:53:46;;;;;;;;;21.00;19.50;;;;;16.63;100.00;98245.09;6227636;28;96345;-61
2023/10/24 08:56:51;;;;;;;;;23.00;19.00;;;;;16.86;100.00;98241.72;6234095;28;96636;-61
2023/10/24 08:59:56;;;;;;;;;23.00;22.00;;;;;17.05;100.00;98221.00;6235350;27;96516;-61
2023/10/24 09:03:01;;;;;;;;;22.40;21.40;;;;;17.37;100.00;98214.25;6220878;28;96726;-61
2023/10/24 09:06:05;;;;;;;;;27.00;24.40;;;;;17.71;100.00;98193.34;6231894;28;96683;-62
2023/10/24 09:09:08;;;;;;;;;23.00;22.00;;;;;17.99;100.00;98198.00;6225242;27;96479;-61
2023/10/24 09:12:14;;;;;;;;;21.40;21.00;;;;;18.08;100.00;98193.56;6227016;28;96717;-62
2023/10/24 09:15:17;;;;;;;;;22.00;20.00;;;;;18.42;100.00;98193.50;6234272;28;96530;-61
2023/10/24 09:18:22;;;;;;;;;21.40;20.00;;;;;18.64;100.00;98192.22;6219124;28;96999;-62
2023/10/24 09:21:26;;;;;;;;;21.00;20.00;;;;;18.99;100.00;98191.78;6221583;27;98437;-62
2023/10/24 09:24:29;;;;;;;;;23.00;21.60;;;;;19.29;100.00;98209.69;6226780;28;96305;-62
2023/10/24 09:27:32;;;;;;;;;24.00;23.00;;;;;19.84;100.00;98197.13;6219568;27;96316;-62
2023/10/24 09:30:35;;;;;;;;;22.20;19.60;;;;;20.77;100.00;98192.47;6230757;28;96748;-62
2023/10/24 09:33:40;;;;;;;;;20.60;20.00;;;;;20.97;100.00;98205.72;6230657;27;96507;-62
2023/10/24 09:36:44;;;;;;;;;18.75;17.00;;;;;20.97;100.00;98217.50;6221020;28;99440;-62
2023/10/24 09:39:52;;;;;;;;;20.50;18.50;;;;;22.02;100.00;98230.00;6223027;27;96812;-62
2023/10/24 09:42:56;;;;;;;;;23.60;20.00;;;;;22.79;100.00;98228.84;6232126;28;97011;-62
2023/10/24 09:46:01;;;;;;;;;21.20;19.80;;;;;23.78;100.00;98228.13;6240022;27;96809;-61
2023/10/24 09:49:07;;;;;;;;;23.60;22.40;;;;;25.17;100.00;98227.47;6227554;28;96532;-61
2023/10/24 09:52:10;;;;;;;;;21.20;20.00;;;;;26.00;100.00;98208.22;6218389;28;96774;-61
2023/10/24 09:55:15;;;;;;;;;24.75;22.00;;;;;26.67;96.95;98191.31;6237867;28;96499;-61
2023/10/24 09:58:22;;;;;;;;;23.00;22.00;;;;;27.20;92.38;98183.94;6228316;28;96389;-61
2023/10/24 10:01:28;;;;;;;;;21.00;19.00;;;;;27.06;92.15;98178.78;6239797;28;97636;-61
2023/10/24 10:04:33;;;;;;;;;19.75;17.75;;;;;26.69;94.22;98163.28;6237918;27;97578;-62
2023/10/24 10:07:39;;;;;;;;;20.00;19.00;;;;;26.02;96.01;98131.38;6223545;27;98888;-62
2023/10/24 10:10:44;;;;;;;;;22.00;19.75;;;;;25.93;98.90;98149.97;6240783;28;97001;-61
2023/10/24 10:13:54;;;;;;;;;20.40;18.00;;;;;26.23;98.18;98134.91;6229530;28;96447;-62
2023/10/24 10:17:14;;;;;;;;;22.00;19.60;;;;;26.94;95.91;98128.97;6238325;28;98944;-62
2023/10/24 10:20:38;;;;;;;;;17.50;16.00;;;;;27.29;92.99;98128.47;6238424;28;96319;-62
2023/10/24 10:24:02;;;;;;;;;19.00;17.00;;;;;27.12;91.59;98124.81;6236981;28;96842;-62
2023/10/24 10:27:20;;;;;;;;;23.00;18.50;;;;;26.99;93.20;98119.63;6227355;27;97013;-62
2023/10/24 10:30:32;;;;;;;;;24.40;20.00;;;;;26.79;94.76;98109.47;6228971;28;96804;-62
2023/10/24 10:33:55;;;;;;;;;22.00;20.00;;;;;26.30;97.39;98101.16;6213191;28;99552;-62
2023/10/24 10:37:00;;;;;;;;;25.00;21.67;;;;;25.78;100.00;98098.97;6215347;28;96577;-62
2023/10/24 10:40:27;;;;;;;;;21.00;18.40;;;;;25.30;100.00;98093.22;6230927;27;96485;-61
2023/10/24 10:43:31;;;;;;;;;19.00;18.00;;;;;25.07;100.00;98100.97;6229829;28;96555;-62
2023/10/24 10:46:34;;;;;;;;;24.00;21.00;;;;;24.75;100.00;98101.66;6237109;28;97122;-62
2023/10/24 10:49:39;;;;;;;;;27.00;24.00;;;;;24.17;100.00;98086.72;6236441;27;97116;-61
2023/10/24 10:52:52;;;;;;;;;26.20;24.20;;;;;23.66;100.00;98090.34;6235198;28;96678;-61
2023/10/24 10:56:10;;;;;;;;;25.00;22.80;;;;;23.94;100.00;98079.78;6245393;27;97044;-69
2023/10/24 10:59:31;;;;;;;;;23.60;20.60;;;;;25.35;100.00;98077.25;6232758;28;96648;-69
2023/10/24 11:02:51;;;;;;;;;24.20;22.80;;;;;26.53;100.00;98071.97;6233639;27;98552;-70
2023/10/24 11:05:55;;;;;;;;;25.00;24.20;;;;;28.00;95.79;98070.41;6234823;28;97625;-69
2023/10/24 11:09:10;;;;;;;;;24.75;22.75;;;;;29.40;87.79;98056.75;6228212;28;96474;-69
2023/10/24 11:12:27;;;;;;;;;22.40;20.80;;;;;30.41;78.92;98042.34;6229855;28;96894;-69
2023/10/24 11:15:31;;;;;;;;;20.20;19.20;;;;;31.29;76.52;98034.53;6217973;27;97072;-70
2023/10/24 11:18:35;;;;;;;;;20.20;19.20;;;;;31.85;73.09;98034.44;6231323;28;96787;-69
2023/10/24 11:21:39;;;;;;;;;17.75;16.50;;;;;32.33;66.21;98023.34;6234471;28;96640;-70
2023/10/24 11:24:43;;;;;;;;;16.75;16.75;;;;;32.78;64.03;98024.91;6228617;27;97918;-69
2023/10/24 11:27:48;;;;;;;;;10.60;10.60;;;;;33.29;57.25;98014.44;6231432;28;97075;-69
2023/10/24 11:30:52;;;;;;;;;12.50;11.00;;;;;33.60;54.99;98018.53;6228401;28;99610;-68
2023/10/24 11:33:56;;;;;;;;;12.00;12.00;;;;;33.76;54.11;98021.03;6213026;28;97331;-69
2023/10/24 11:37:00;;;;;;;;;11.60;10.60;;;;;34.08;56.09;98021.06;6231347;27;96625;-69
2023/10/24 11:40:06;;;;;;;;;12.00;11.00;;;;;34.29;52.14;98032.31;6229857;28;96724;-68
2023/10/24 11:43:09;;;;;;;;;11.00;10.00;;;;;34.19;53.06;98025.50;6231556;28;97649;-69
2023/10/24 11:46:13;;;;;;;;;9.40;9.00;;;;;34.11;54.00;98023.84;6219689;28;97016;-69
2023/10/24 11:49:16;;;;;;;;;8.40;8.00;;;;;34.17;53.78;98016.66;6224819;27;97422;-69
2023/10/24 11:52:19;;;;;;;;;9.00;9.00;;;;;34.29;51.48;98019.13;6209992;28;99236;-69
2023/10/24 11:55:24;;;;;;;;;8.00;7.00;;;;;34.33;51.46;98033.91;6229254;28;98560;-69
2023/10/24 11:58:33;;;;;;;;;9.00;8.50;;;;;34.09;52.67;98045.03;6221028;27;96380;-68
2023/10/24 12:01:36;;;;;;;;;10.00;9.75;;;;;33.53;54.27;98042.88;6203114;28;97208;-69
2023/10/24 12:04:40;;;;;;;;;11.00;10.60;;;;;32.77;62.08;98056.81;6232760;28;97177;-69
2023/10/24 12:07:43;;;;;;;;;9.40;8.60;;;;;32.09;66.55;98044.22;6235870;28;96243;-69
2023/10/24 12:10:54;;;;;;;;;11.00;10.00;;;;;31.45;70.39;98046.28;6219348;28;98740;-69
2023/10/24 12:13:57;;;;;;;;;10.00;9.00;;;;;31.08;74.59;98045.44;6219714;27;96701;-68
2023/10/24 12:17:00;;;;;;;;;11.80;10.00;;;;;30.55;76.90;98034.28;6226336;28;96662;-69
2023/10/24 12:20:04;;;;;;;;;11.60;11.60;;;;;29.73;80.74;97978.41;6227447;28;96382;-69
2023/10/24 12:23:07;;;;;;;;;12.20;11.40;;;;;29.24;85.63;98026.25;6205932;28;98149;-68
2023/10/24 12:26:12;;;;;;;;;11.00;10.00;;;;;28.66;89.03;98022.56;6220416;27;96526;-69
2023/10/24 12:29:15;;;;;;;;;13.60;11.60;;;;;28.08;92.63;98014.00;6224122;28;96840;-69
2023/10/24 12:32:18;;;;;;;;;11.00;9.00;;;;;27.35;96.85;98002.53;6218049;28;96510;-69
2023/10/24 12:35:21;;;;;;;;;11.00;10.00;;;;;26.71;100.00;97995.09;6232527;28;96693;-69
2023/10/24 12:38:25;;;;;;;;;10.00;10.00;;;;;26.05;100.00;97994.50;6234376;28;96865;-69
2023/10/24 12:41:29;;;;;;;;;11.20;10.20;;;;;25.49;100.00;97998.88;6233227;27;96496;-68
2023/10/24 12:44:33;;;;;;;;;8.50;8.00;;;;;24.90;100.00;97993.59;6231343;28;96586;-68
2023/10/24 12:47:37;;;;;;;;;8.75;8.00;;;;;24.38;100.00;97971.91;6233171;28;98458;-68
2023/10/24 12:50:41;;;;;;;;;11.00;9.00;;;;;23.94;100.00;97966.91;6236377;27;97881;-69
2023/10/24 12:53:44;;;;;;;;;10.00;9.00;;;;;23.54;100.00;97967.22;6230918;28;96885;-68
2023/10/24 12:56:49;;;;;;;;;10.00;10.00;;;;;23.24;100.00;97962.75;6223060;28;96689;-68
2023/10/24 12:59:53;;;;;;;;;10.00;9.00;;;;;22.82;100.00;97958.91;6204147;28;98368;-68
2023/10/24 13:02:56;;;;;;;;;13.00;12.00;;;;;22.46;100.00;97957.25;6231192;28;96740;-68
2023/10/24 13:05:59;;;;;;;;;13.00;10.60;;;;;22.26;100.00;97944.13;6230035;28;96994;-67
2023/10/24 13:09:03;;;;;;;;;12.00;10.00;;;;;22.08;100.00;97927.94;6232031;28;97272;-69
2023/10/24 13:12:09;;;;;;;;;12.00;12.00;;;;;21.87;100.00;97911.22;6231634;28;96547;-68
2023/10/24 13:15:12;;;;;;;;;12.00;11.00;;;;;21.75;100.00;97902.78;6223252;27;97513;-68
2023/10/24 13:18:15;;;;;;;;;14.00;13.40;;;;;21.49;100.00;97891.75;6227581;28;96775;-61
2023/10/24 13:21:18;;;;;;;;;11.20;10.80;;;;;21.33;100.00;97885.06;6225504;28;96439;-61
2023/10/24 13:24:22;;;;;;;;;11.25;10.50;;;;;21.25;100.00;97880.34;6222007;28;96644;-61
2023/10/24 13:27:30;;;;;;;;;11.75;10.75;;;;;21.05;100.00;97882.47;6232332;28;96483;-62
2023/10/24 13:30:33;;;;;;;;;11.60;11.00;;;;;21.00;100.00;97888.09;6216854;28;96419;-62
2023/10/24 13:33:51;;;;;;;;;12.60;10.60;;;;;20.84;100.00;97875.06;6234934;27;96558;-62
2023/10/24 13:36:57;;;;;;;;;12.00;11.00;;;;;20.69;100.00;97871.59;6224883;27;96700;-61
2023/10/24 13:40:01;;;;;;;;;13.60;12.00;;;;;20.60;100.00;97867.19;6225275;28;96678;-61
2023/10/24 13:43:06;;;;;;;;;13.00;12.50;;;;;20.62;100.00;97864.97;6228660;28;96463;-61
2023/10/24 13:46:09;;;;;;;;;12.80;11.80;;;;;20.60;100.00;97862.50;6233543;28;97414;-61
2023/10/24 13:49:12;;;;;;;;;10.75;9.75;;;;;20.53;100.00;97855.84;6230411;28;97508;-61
2023/10/24 13:52:15;;;;;;;;;12.00;11.00;;;;;20.51;100.00;97852.63;6230525;28;96500;-61
2023/10/24 13:55:19;;;;;;;;;14.00;13.00;;;;;20.51;100.00;97849.88;6234809;27;96897;-61
2023/10/24 13:58:23;;;;;;;;;12.40;12.40;;;;;20.46;100.00;97847.28;6235031;28;96586;-61
2023/10/24 14:01:28;;;;;;;;;13.00;11.00;;;;;20.46;100.00;97839.06;6232036;27;97371;-61